sensor_id;sensor_type;location;lat;lon;timestamp;pressure;altitude;pressure_sealevel;temperature
64296;BMP280;51082;38.236;15.432;2022-07-29T00:00:58;101305.72;;;28.35
64296;BMP280;51082;38.236;15.432;2022-07-29T00:02:00;101302.06;;;28.31
64296;BMP280;51082;38.236;15.432;2022-07-29T00:03:03;101299.69;;;28.29
64296;BMP280;51082;38.236;15.432;2022-07-29T00:04:05;101305.84;;;28.30
64296;BMP280;51082;38.236;15.432;2022-07-29T00:05:08;101297.47;;;28.31
64296;BMP280;51082;38.236;15.432;2022-07-29T00:06:10;101296.72;;;28.31
64296;BMP280;51082;38.236;15.432;2022-07-29T00:07:12;101301.75;;;28.32
64296;BMP280;51082;38.236;15.432;2022-07-29T00:08:14;101297.66;;;28.35
64296;BMP280;51082;38.236;15.432;2022-07-29T00:09:18;101302.06;;;28.31
64296;BMP280;51082;38.236;15.432;2022-07-29T00:10:20;101291.16;;;28.27
64296;BMP280;51082;38.236;15.432;2022-07-29T00:11:23;101289.56;;;28.26
64296;BMP280;51082;38.236;15.432;2022-07-29T00:12:25;101294.91;;;28.26
64296;BMP280;51082;38.236;15.432;2022-07-29T00:13:27;101289.34;;;28.23
64296;BMP280;51082;38.236;15.432;2022-07-29T00:14:30;101293.16;;;28.22
64296;BMP280;51082;38.236;15.432;2022-07-29T00:15:32;101287.00;;;28.21
64296;BMP280;51082;38.236;15.432;2022-07-29T00:16:34;101289.19;;;28.19
64296;BMP280;51082;38.236;15.432;2022-07-29T00:17:36;101284.13;;;28.18
64296;BMP280;51082;38.236;15.432;2022-07-29T00:18:39;101285.22;;;28.17
64296;BMP280;51082;38.236;15.432;2022-07-29T00:19:40;101292.94;;;28.18
64296;BMP280;51082;38.236;15.432;2022-07-29T00:20:43;101292.16;;;28.18
64296;BMP280;51082;38.236;15.432;2022-07-29T00:21:45;101287.41;;;28.15
64296;BMP280;51082;38.236;15.432;2022-07-29T00:22:47;101288.41;;;28.19
64296;BMP280;51082;38.236;15.432;2022-07-29T00:23:49;101277.09;;;28.22
64296;BMP280;51082;38.236;15.432;2022-07-29T00:24:53;101287.31;;;28.20
64296;BMP280;51082;38.236;15.432;2022-07-29T00:25:55;101285.41;;;28.20
64296;BMP280;51082;38.236;15.432;2022-07-29T00:26:58;101288.69;;;28.17
64296;BMP280;51082;38.236;15.432;2022-07-29T00:27:59;101295.72;;;28.13
64296;BMP280;51082;38.236;15.432;2022-07-29T00:29:03;101282.66;;;28.12
64296;BMP280;51082;38.236;15.432;2022-07-29T00:30:06;101287.22;;;28.11
64296;BMP280;51082;38.236;15.432;2022-07-29T00:31:09;101285.63;;;28.10
64296;BMP280;51082;38.236;15.432;2022-07-29T00:32:10;101283.75;;;28.11
64296;BMP280;51082;38.236;15.432;2022-07-29T00:33:13;101281.88;;;28.11
64296;BMP280;51082;38.236;15.432;2022-07-29T00:34:15;101280.66;;;28.17
64296;BMP280;51082;38.236;15.432;2022-07-29T00:35:31;101279.84;;;28.17
64296;BMP280;51082;38.236;15.432;2022-07-29T00:36:50;101282.25;;;28.18
64296;BMP280;51082;38.236;15.432;2022-07-29T00:37:53;101280.38;;;28.19
64296;BMP280;51082;38.236;15.432;2022-07-29T00:38:54;101280.66;;;28.17
64296;BMP280;51082;38.236;15.432;2022-07-29T00:39:59;101279.66;;;28.13
64296;BMP280;51082;38.236;15.432;2022-07-29T00:41:00;101281.28;;;28.14
64296;BMP280;51082;38.236;15.432;2022-07-29T00:42:04;101282.88;;;28.15
64296;BMP280;51082;38.236;15.432;2022-07-29T00:43:05;101279.66;;;28.13
64296;BMP280;51082;38.236;15.432;2022-07-29T00:44:08;101276.50;;;28.11
64296;BMP280;51082;38.236;15.432;2022-07-29T00:45:10;101281.56;;;28.13
64296;BMP280;51082;38.236;15.432;2022-07-29T00:46:13;101278.88;;;28.13
64296;BMP280;51082;38.236;15.432;2022-07-29T00:47:14;101274.31;;;28.13
64296;BMP280;51082;38.236;15.432;2022-07-29T00:48:17;101268.19;;;28.13
64296;BMP280;51082;38.236;15.432;2022-07-29T00:49:20;101275.09;;;28.14
64296;BMP280;51082;38.236;15.432;2022-07-29T00:50:22;101276.50;;;28.11
64296;BMP280;51082;38.236;15.432;2022-07-29T00:51:26;101271.16;;;28.11
64296;BMP280;51082;38.236;15.432;2022-07-29T00:52:28;101275.41;;;28.12
64296;BMP280;51082;38.236;15.432;2022-07-29T00:53:31;101271.16;;;28.11
64296;BMP280;51082;38.236;15.432;2022-07-29T00:54:35;101265.78;;;28.11
64296;BMP280;51082;38.236;15.432;2022-07-29T00:55:38;101263.59;;;28.13
64296;BMP280;51082;38.236;15.432;2022-07-29T00:56:40;101272.25;;;28.10
64296;BMP280;51082;38.236;15.432;2022-07-29T00:57:43;101271.16;;;28.11
64296;BMP280;51082;38.236;15.432;2022-07-29T00:58:47;101258.84;;;28.10
64296;BMP280;51082;38.236;15.432;2022-07-29T00:59:49;101264.50;;;28.08
64296;BMP280;51082;38.236;15.432;2022-07-29T01:00:52;101261.81;;;28.08
64296;BMP280;51082;38.236;15.432;2022-07-29T01:01:55;101270.16;;;28.07
64296;BMP280;51082;38.236;15.432;2022-07-29T01:02:57;101265.91;;;28.06
64296;BMP280;51082;38.236;15.432;2022-07-29T01:04:00;101270.16;;;28.07
64296;BMP280;51082;38.236;15.432;2022-07-29T01:05:03;101266.38;;;28.08
64296;BMP280;51082;38.236;15.432;2022-07-29T01:06:06;101268.59;;;28.06
64296;BMP280;51082;38.236;15.432;2022-07-29T01:07:08;101262.91;;;28.07
64296;BMP280;51082;38.236;15.432;2022-07-29T01:08:14;101265.00;;;28.11
64296;BMP280;51082;38.236;15.432;2022-07-29T01:09:17;101267.97;;;28.09
64296;BMP280;51082;38.236;15.432;2022-07-29T01:10:21;101263.13;;;28.11
64296;BMP280;51082;38.236;15.432;2022-07-29T01:11:25;101259.94;;;28.09
64296;BMP280;51082;38.236;15.432;2022-07-29T01:12:30;101265.31;;;28.09
64296;BMP280;51082;38.236;15.432;2022-07-29T01:13:34;101263.72;;;28.08
64296;BMP280;51082;38.236;15.432;2022-07-29T01:14:37;101260.03;;;28.04
64296;BMP280;51082;38.236;15.432;2022-07-29T01:15:43;101259.06;;;28.00
64296;BMP280;51082;38.236;15.432;2022-07-29T01:16:51;101254.69;;;28.04
64296;BMP280;51082;38.236;15.432;2022-07-29T01:18:00;101264.59;;;28.03
64296;BMP280;51082;38.236;15.432;2022-07-29T01:19:10;101257.97;;;28.01
64296;BMP280;51082;38.236;15.432;2022-07-29T01:20:17;101253.72;;;28.00
64296;BMP280;51082;38.236;15.432;2022-07-29T01:21:44;101251.34;;;27.98
64296;BMP280;51082;38.236;15.432;2022-07-29T01:24:30;101253.72;;;28.00
64296;BMP280;51082;38.236;15.432;2022-07-29T01:26:04;101258.56;;;27.98
64296;BMP280;51082;38.236;15.432;2022-07-29T01:27:22;101259.69;;;27.97
64296;BMP280;51082;38.236;15.432;2022-07-29T01:30:05;101264.44;;;28.00
64296;BMP280;51082;38.236;15.432;2022-07-29T01:31:07;101260.44;;;27.97
64296;BMP280;51082;38.236;15.432;2022-07-29T01:32:15;101254.59;;;27.95
64296;BMP280;51082;38.236;15.432;2022-07-29T01:33:20;101261.25;;;27.98
64296;BMP280;51082;38.236;15.432;2022-07-29T01:34:55;101263.13;;;27.97
64296;BMP280;51082;38.236;15.432;2022-07-29T01:36:01;101262.63;;;27.95
64296;BMP280;51082;38.236;15.432;2022-07-29T01:37:10;101262.47;;;27.92
64296;BMP280;51082;38.236;15.432;2022-07-29T01:38:20;101265.63;;;27.94
64296;BMP280;51082;38.236;15.432;2022-07-29T01:39:26;101259.47;;;27.93
64296;BMP280;51082;38.236;15.432;2022-07-29T01:40:36;101265.63;;;27.94
64296;BMP280;51082;38.236;15.432;2022-07-29T01:41:48;101258.69;;;27.93
64296;BMP280;51082;38.236;15.432;2022-07-29T01:42:55;101258.06;;;27.96
64296;BMP280;51082;38.236;15.432;2022-07-29T01:44:01;101255.91;;;27.98
64296;BMP280;51082;38.236;15.432;2022-07-29T01:45:12;101255.69;;;27.94
64296;BMP280;51082;38.236;15.432;2022-07-29T01:46:21;101255.50;;;27.91
64296;BMP280;51082;38.236;15.432;2022-07-29T01:47:32;101260.56;;;27.92
64296;BMP280;51082;38.236;15.432;2022-07-29T01:48:40;101261.47;;;27.88
64296;BMP280;51082;38.236;15.432;2022-07-29T01:49:48;101264.63;;;27.90
64296;BMP280;51082;38.236;15.432;2022-07-29T01:50:55;101261.38;;;27.93
64296;BMP280;51082;38.236;15.432;2022-07-29T01:52:05;101268.09;;;27.90
64296;BMP280;51082;38.236;15.432;2022-07-29T01:53:09;101263.03;;;27.89
64296;BMP280;51082;38.236;15.432;2022-07-29T01:54:16;101269.50;;;27.88
64296;BMP280;51082;38.236;15.432;2022-07-29T01:55:23;101277.03;;;27.86
64296;BMP280;51082;38.236;15.432;2022-07-29T01:56:29;101269.31;;;27.84
64296;BMP280;51082;38.236;15.432;2022-07-29T01:57:35;101271.19;;;27.84
64296;BMP280;51082;38.236;15.432;2022-07-29T01:58:42;101269.09;;;27.81
64296;BMP280;51082;38.236;15.432;2022-07-29T01:59:46;101272.06;;;27.79
64296;BMP280;51082;38.236;15.432;2022-07-29T02:00:51;101273.94;;;27.79
64296;BMP280;51082;38.236;15.432;2022-07-29T02:01:54;101263.75;;;27.81
64296;BMP280;51082;38.236;15.432;2022-07-29T02:03:02;101271.44;;;27.82
64296;BMP280;51082;38.236;15.432;2022-07-29T02:04:08;101276.03;;;27.82
64296;BMP280;51082;38.236;15.432;2022-07-29T02:05:13;101273.16;;;27.78
64296;BMP280;51082;38.236;15.432;2022-07-29T02:06:19;101267.00;;;27.78
64296;BMP280;51082;38.236;15.432;2022-07-29T02:07:23;101270.78;;;27.77
64296;BMP280;51082;38.236;15.432;2022-07-29T02:08:28;101269.19;;;27.76
64296;BMP280;51082;38.236;15.432;2022-07-29T02:09:32;101269.00;;;27.72
64296;BMP280;51082;38.236;15.432;2022-07-29T02:10:36;101268.50;;;27.70
64296;BMP280;51082;38.236;15.432;2022-07-29T02:11:39;101268.81;;;27.68
64296;BMP280;51082;38.236;15.432;2022-07-29T02:12:43;101265.34;;;27.68
64296;BMP280;51082;38.236;15.432;2022-07-29T02:13:47;101267.72;;;27.69
64296;BMP280;51082;38.236;15.432;2022-07-29T02:14:53;101264.75;;;27.71
64296;BMP280;51082;38.236;15.432;2022-07-29T02:15:57;101264.44;;;27.72
64296;BMP280;51082;38.236;15.432;2022-07-29T02:17:02;101263.44;;;27.68
64296;BMP280;51082;38.236;15.432;2022-07-29T02:18:06;101257.00;;;27.69
64296;BMP280;51082;38.236;15.432;2022-07-29T02:19:09;101256.50;;;27.67
64296;BMP280;51082;38.236;15.432;2022-07-29T02:20:13;101256.50;;;27.67
64296;BMP280;51082;38.236;15.432;2022-07-29T02:21:21;101262.19;;;27.66
64296;BMP280;51082;38.236;15.432;2022-07-29T02:22:25;101258.72;;;27.65
64296;BMP280;51082;38.236;15.432;2022-07-29T02:23:31;101259.97;;;27.68
64296;BMP280;51082;38.236;15.432;2022-07-29T02:24:35;101267.22;;;27.67
64296;BMP280;51082;38.236;15.432;2022-07-29T02:25:41;101259.78;;;27.64
64296;BMP280;51082;38.236;15.432;2022-07-29T02:26:43;101260.84;;;27.63
64296;BMP280;51082;38.236;15.432;2022-07-29T02:27:47;101250.16;;;27.63
64296;BMP280;51082;38.236;15.432;2022-07-29T02:28:52;101255.50;;;27.63
64296;BMP280;51082;38.236;15.432;2022-07-29T02:29:58;101253.94;;;27.62
64296;BMP280;51082;38.236;15.432;2022-07-29T02:31:04;101252.94;;;27.58
64296;BMP280;51082;38.236;15.432;2022-07-29T02:32:09;101270.09;;;27.57
64296;BMP280;51082;38.236;15.432;2022-07-29T02:33:14;101255.16;;;27.56
64296;BMP280;51082;38.236;15.432;2022-07-29T02:34:18;101256.69;;;27.57
64296;BMP280;51082;38.236;15.432;2022-07-29T02:35:22;101259.69;;;27.56
64296;BMP280;51082;38.236;15.432;2022-07-29T02:36:24;101257.50;;;27.58
64296;BMP280;51082;38.236;15.432;2022-07-29T02:37:29;101257.28;;;27.54
64296;BMP280;51082;38.236;15.432;2022-07-29T02:38:32;101254.03;;;27.57
64296;BMP280;51082;38.236;15.432;2022-07-29T02:39:59;101249.25;;;27.54
64296;BMP280;51082;38.236;15.432;2022-07-29T02:41:04;101262.28;;;27.47
64296;BMP280;51082;38.236;15.432;2022-07-29T02:42:11;101256.41;;;27.45
64296;BMP280;51082;38.236;15.432;2022-07-29T02:43:14;101254.31;;;27.42
64296;BMP280;51082;38.236;15.432;2022-07-29T02:44:24;101255.31;;;27.46
64296;BMP280;51082;38.236;15.432;2022-07-29T02:45:27;101251.59;;;27.47
64296;BMP280;51082;38.236;15.432;2022-07-29T02:46:34;101248.38;;;27.45
64296;BMP280;51082;38.236;15.432;2022-07-29T02:47:39;101249.97;;;27.46
64296;BMP280;51082;38.236;15.432;2022-07-29T02:48:48;101244.91;;;27.45
64296;BMP280;51082;38.236;15.432;2022-07-29T02:49:55;101243.03;;;27.45
64296;BMP280;51082;38.236;15.432;2022-07-29T02:51:01;101243.56;;;27.47
64296;BMP280;51082;38.236;15.432;2022-07-29T02:52:08;101250.97;;;27.50
64296;BMP280;51082;38.236;15.432;2022-07-29T02:53:15;101247.19;;;27.51
64296;BMP280;51082;38.236;15.432;2022-07-29T02:54:24;101248.78;;;27.52
64296;BMP280;51082;38.236;15.432;2022-07-29T02:55:31;101245.03;;;27.53
64296;BMP280;51082;38.236;15.432;2022-07-29T02:56:35;101246.13;;;27.52
64296;BMP280;51082;38.236;15.432;2022-07-29T02:57:43;101240.25;;;27.50
64296;BMP280;51082;38.236;15.432;2022-07-29T02:58:49;101242.72;;;27.47
64296;BMP280;51082;38.236;15.432;2022-07-29T02:59:57;101241.66;;;27.48
64296;BMP280;51082;38.236;15.432;2022-07-29T03:01:02;101241.34;;;27.49
64296;BMP280;51082;38.236;15.432;2022-07-29T03:02:07;101243.56;;;27.47
64296;BMP280;51082;38.236;15.432;2022-07-29T03:03:13;101247.09;;;27.43
64296;BMP280;51082;38.236;15.432;2022-07-29T03:04:17;101252.94;;;27.45
64296;BMP280;51082;38.236;15.432;2022-07-29T03:05:22;101243.59;;;27.42
64296;BMP280;51082;38.236;15.432;2022-07-29T03:06:25;101243.59;;;27.42
64296;BMP280;51082;38.236;15.432;2022-07-29T03:07:30;101248.94;;;27.42
64296;BMP280;51082;38.236;15.432;2022-07-29T03:08:32;101248.38;;;27.45
64296;BMP280;51082;38.236;15.432;2022-07-29T03:09:36;101241.13;;;27.46
64296;BMP280;51082;38.236;15.432;2022-07-29T03:10:42;101245.41;;;27.47
64296;BMP280;51082;38.236;15.432;2022-07-29T03:11:45;101248.16;;;27.42
64296;BMP280;51082;38.236;15.432;2022-07-29T03:12:47;101252.72;;;27.41
64296;BMP280;51082;38.236;15.432;2022-07-29T03:13:50;101245.31;;;27.38
64296;BMP280;51082;38.236;15.432;2022-07-29T03:14:52;101247.47;;;27.36
64296;BMP280;51082;38.236;15.432;2022-07-29T03:15:55;101258.69;;;27.38
64296;BMP280;51082;38.236;15.432;2022-07-29T03:16:58;101248.25;;;27.37
64296;BMP280;51082;38.236;15.432;2022-07-29T03:18:03;101250.94;;;27.37
64296;BMP280;51082;38.236;15.432;2022-07-29T03:19:06;101253.41;;;27.33
64296;BMP280;51082;38.236;15.432;2022-07-29T03:20:10;101248.56;;;27.35
64296;BMP280;51082;38.236;15.432;2022-07-29T03:21:13;101247.97;;;27.38
64296;BMP280;51082;38.236;15.432;2022-07-29T03:22:15;101244.81;;;27.36
64296;BMP280;51082;38.236;15.432;2022-07-29T03:23:19;101241.66;;;27.34
64296;BMP280;51082;38.236;15.432;2022-07-29T03:24:29;101244.22;;;27.39
64296;BMP280;51082;38.236;15.432;2022-07-29T03:25:32;101247.00;;;27.34
64296;BMP280;51082;38.236;15.432;2022-07-29T03:26:34;101241.66;;;27.34
64296;BMP280;51082;38.236;15.432;2022-07-29T03:27:36;101243.78;;;27.32
64296;BMP280;51082;38.236;15.432;2022-07-29T03:28:39;101244.59;;;27.32
64296;BMP280;51082;38.236;15.432;2022-07-29T03:29:40;101241.44;;;27.30
64296;BMP280;51082;38.236;15.432;2022-07-29T03:30:43;101242.22;;;27.31
64296;BMP280;51082;38.236;15.432;2022-07-29T03:31:45;101243.78;;;27.32
64296;BMP280;51082;38.236;15.432;2022-07-29T03:32:48;101239.84;;;27.29
64296;BMP280;51082;38.236;15.432;2022-07-29T03:33:53;101236.16;;;27.25
64296;BMP280;51082;38.236;15.432;2022-07-29T03:34:54;101247.16;;;27.24
64296;BMP280;51082;38.236;15.432;2022-07-29T03:35:57;101248.78;;;27.25
64296;BMP280;51082;38.236;15.432;2022-07-29T03:36:59;101242.88;;;27.23
64296;BMP280;51082;38.236;15.432;2022-07-29T03:38:02;101243.78;;;27.18
64296;BMP280;51082;38.236;15.432;2022-07-29T03:39:04;101247.56;;;27.17
64296;BMP280;51082;38.236;15.432;2022-07-29T03:40:09;101247.56;;;27.17
64296;BMP280;51082;38.236;15.432;2022-07-29T03:41:14;101246.75;;;27.17
64296;BMP280;51082;38.236;15.432;2022-07-29T03:42:16;101243.00;;;27.18
64296;BMP280;51082;38.236;15.432;2022-07-29T03:43:22;101242.78;;;27.14
64296;BMP280;51082;38.236;15.432;2022-07-29T03:44:26;101249.72;;;27.15
64296;BMP280;51082;38.236;15.432;2022-07-29T03:45:30;101250.09;;;27.09
64296;BMP280;51082;38.236;15.432;2022-07-29T03:46:34;101245.94;;;27.03
64296;BMP280;51082;38.236;15.432;2022-07-29T03:47:40;101249.66;;;27.02
64296;BMP280;51082;38.236;15.432;2022-07-29T03:48:46;101249.56;;;27.07
64296;BMP280;51082;38.236;15.432;2022-07-29T03:49:54;101252.25;;;27.07
64296;BMP280;51082;38.236;15.432;2022-07-29T03:50:58;101253.97;;;27.03
64296;BMP280;51082;38.236;15.432;2022-07-29T03:52:01;101253.97;;;27.03
64296;BMP280;51082;38.236;15.432;2022-07-29T03:53:02;101252.56;;;27.05
64296;BMP280;51082;38.236;15.432;2022-07-29T03:54:05;101251.78;;;27.05
64296;BMP280;51082;38.236;15.432;2022-07-29T03:55:09;101249.88;;;27.05
64296;BMP280;51082;38.236;15.432;2022-07-29T03:56:15;101253.88;;;27.08
64296;BMP280;51082;38.236;15.432;2022-07-29T03:57:18;101252.84;;;27.04
64296;BMP280;51082;38.236;15.432;2022-07-29T03:58:23;101255.63;;;26.98
64296;BMP280;51082;38.236;15.432;2022-07-29T03:59:26;101251.56;;;27.01
64296;BMP280;51082;38.236;15.432;2022-07-29T04:00:29;101253.03;;;26.93
64296;BMP280;51082;38.236;15.432;2022-07-29T04:01:33;101259.97;;;26.94
64296;BMP280;51082;38.236;15.432;2022-07-29T04:02:37;101254.09;;;26.92
64296;BMP280;51082;38.236;15.432;2022-07-29T04:03:40;101263.72;;;26.93
64296;BMP280;51082;38.236;15.432;2022-07-29T04:04:43;101252.16;;;26.98
64296;BMP280;51082;38.236;15.432;2022-07-29T04:05:57;101261.56;;;26.95
64296;BMP280;51082;38.236;15.432;2022-07-29T04:07:00;101263.09;;;26.96
64296;BMP280;51082;38.236;15.432;2022-07-29T04:08:02;101254.31;;;26.96
64296;BMP280;51082;38.236;15.432;2022-07-29T04:09:05;101258.38;;;26.93
64296;BMP280;51082;38.236;15.432;2022-07-29T04:10:07;101259.97;;;26.94
64296;BMP280;51082;38.236;15.432;2022-07-29T04:11:10;101256.19;;;26.95
64296;BMP280;51082;38.236;15.432;2022-07-29T04:12:11;101255.41;;;26.95
64296;BMP280;51082;38.236;15.432;2022-07-29T04:13:14;101251.16;;;26.94
64296;BMP280;51082;38.236;15.432;2022-07-29T04:14:16;101250.06;;;26.95
64296;BMP280;51082;38.236;15.432;2022-07-29T04:15:19;101252.97;;;26.98
64296;BMP280;51082;38.236;15.432;2022-07-29T04:16:20;101255.63;;;26.98
64296;BMP280;51082;38.236;15.432;2022-07-29T04:17:23;101257.22;;;27.00
64296;BMP280;51082;38.236;15.432;2022-07-29T04:18:24;101250.28;;;26.98
64296;BMP280;51082;38.236;15.432;2022-07-29T04:19:27;101256.41;;;26.99
64296;BMP280;51082;38.236;15.432;2022-07-29T04:20:29;101254.00;;;26.97
64296;BMP280;51082;38.236;15.432;2022-07-29T04:21:38;101254.00;;;26.97
64296;BMP280;51082;38.236;15.432;2022-07-29T04:22:39;101253.53;;;26.95
64296;BMP280;51082;38.236;15.432;2022-07-29T04:23:42;101254.53;;;27.00
64296;BMP280;51082;38.236;15.432;2022-07-29T04:24:46;101263.66;;;26.98
64296;BMP280;51082;38.236;15.432;2022-07-29T04:25:49;101262.00;;;27.03
64296;BMP280;51082;38.236;15.432;2022-07-29T04:26:50;101267.34;;;27.03
64296;BMP280;51082;38.236;15.432;2022-07-29T04:27:53;101263.53;;;27.04
64296;BMP280;51082;38.236;15.432;2022-07-29T04:29:03;101264.34;;;27.04
64296;BMP280;51082;38.236;15.432;2022-07-29T04:30:07;101265.72;;;27.02
64296;BMP280;51082;38.236;15.432;2022-07-29T04:31:09;101262.00;;;27.03
64296;BMP280;51082;38.236;15.432;2022-07-29T04:32:11;101267.13;;;26.99
64296;BMP280;51082;38.236;15.432;2022-07-29T04:33:13;101263.91;;;26.97
64296;BMP280;51082;38.236;15.432;2022-07-29T04:34:16;101262.56;;;27.00
64296;BMP280;51082;38.236;15.432;2022-07-29T04:35:17;101261.16;;;27.02
64296;BMP280;51082;38.236;15.432;2022-07-29T04:36:20;101261.16;;;27.02
64296;BMP280;51082;38.236;15.432;2022-07-29T04:37:23;101264.66;;;27.03
64296;BMP280;51082;38.236;15.432;2022-07-29T04:38:26;101266.31;;;26.98
64296;BMP280;51082;38.236;15.432;2022-07-29T04:39:28;101266.31;;;26.98
64296;BMP280;51082;38.236;15.432;2022-07-29T04:40:31;101268.19;;;26.98
64296;BMP280;51082;38.236;15.432;2022-07-29T04:41:34;101271.66;;;26.98
64296;BMP280;51082;38.236;15.432;2022-07-29T04:42:36;101267.38;;;26.97
64296;BMP280;51082;38.236;15.432;2022-07-29T04:43:39;101266.09;;;26.95
64296;BMP280;51082;38.236;15.432;2022-07-29T04:44:40;101271.66;;;26.98
64296;BMP280;51082;38.236;15.432;2022-07-29T04:45:43;101263.53;;;27.04
64296;BMP280;51082;38.236;15.432;2022-07-29T04:46:45;101268.28;;;27.07
64296;BMP280;51082;38.236;15.432;2022-07-29T04:47:48;101271.28;;;27.05
64296;BMP280;51082;38.236;15.432;2022-07-29T04:48:49;101277.13;;;27.07
64296;BMP280;51082;38.236;15.432;2022-07-29T04:49:52;101270.91;;;27.12
64296;BMP280;51082;38.236;15.432;2022-07-29T04:50:54;101276.28;;;27.12
64296;BMP280;51082;38.236;15.432;2022-07-29T04:51:56;101274.56;;;27.16
64296;BMP280;51082;38.236;15.432;2022-07-29T04:53:00;101273.41;;;27.22
64296;BMP280;51082;38.236;15.432;2022-07-29T04:54:03;101267.75;;;27.23
64296;BMP280;51082;38.236;15.432;2022-07-29T04:55:05;101279.25;;;27.24
64296;BMP280;51082;38.236;15.432;2022-07-29T04:56:08;101270.06;;;27.30
64296;BMP280;51082;38.236;15.432;2022-07-29T04:57:10;101275.88;;;27.32
64296;BMP280;51082;38.236;15.432;2022-07-29T04:58:12;101275.13;;;27.31
64296;BMP280;51082;38.236;15.432;2022-07-29T04:59:14;101268.41;;;27.34
64296;BMP280;51082;38.236;15.432;2022-07-29T05:00:17;101274.22;;;27.36
64296;BMP280;51082;38.236;15.432;2022-07-29T05:01:19;101277.09;;;27.40
64296;BMP280;51082;38.236;15.432;2022-07-29T05:02:22;101274.03;;;27.46
64296;BMP280;51082;38.236;15.432;2022-07-29T05:03:23;101275.66;;;27.47
64296;BMP280;51082;38.236;15.432;2022-07-29T05:04:26;101269.19;;;27.48
64296;BMP280;51082;38.236;15.432;2022-07-29T05:05:28;101273.13;;;27.51
64296;BMP280;51082;38.236;15.432;2022-07-29T05:06:30;101272.38;;;27.50
64296;BMP280;51082;38.236;15.432;2022-07-29T05:07:32;101269.59;;;27.55
64296;BMP280;51082;38.236;15.432;2022-07-29T05:08:36;101275.72;;;27.56
64296;BMP280;51082;38.236;15.432;2022-07-29T05:09:38;101277.03;;;27.58
64296;BMP280;51082;38.236;15.432;2022-07-29T05:10:41;101274.34;;;27.58
64296;BMP280;51082;38.236;15.432;2022-07-29T05:11:43;101271.56;;;27.63
64296;BMP280;51082;38.236;15.432;2022-07-29T05:12:46;101264.53;;;27.67
64296;BMP280;51082;38.236;15.432;2022-07-29T05:13:48;101279.00;;;27.80
64296;BMP280;51082;38.236;15.432;2022-07-29T05:14:51;101271.19;;;27.84
64296;BMP280;51082;38.236;15.432;2022-07-29T05:15:52;101276.13;;;27.90
64296;BMP280;51082;38.236;15.432;2022-07-29T05:16:55;101276.13;;;27.90
64296;BMP280;51082;38.236;15.432;2022-07-29T05:17:58;101278.81;;;27.90
64296;BMP280;51082;38.236;15.432;2022-07-29T05:19:01;101272.88;;;27.93
64296;BMP280;51082;38.236;15.432;2022-07-29T05:20:03;101275.91;;;28.00
64296;BMP280;51082;38.236;15.432;2022-07-29T05:21:06;101272.34;;;28.05
64296;BMP280;51082;38.236;15.432;2022-07-29T05:22:07;101272.34;;;28.05
64296;BMP280;51082;38.236;15.432;2022-07-29T05:23:10;101279.78;;;28.08
64296;BMP280;51082;38.236;15.432;2022-07-29T05:24:15;101280.78;;;28.12
64296;BMP280;51082;38.236;15.432;2022-07-29T05:25:17;101283.94;;;28.14
64296;BMP280;51082;38.236;15.432;2022-07-29T05:26:20;101287.09;;;28.16
64296;BMP280;51082;38.236;15.432;2022-07-29T05:27:21;101283.06;;;28.19
64296;BMP280;51082;38.236;15.432;2022-07-29T05:28:24;101289.69;;;28.21
64296;BMP280;51082;38.236;15.432;2022-07-29T05:29:26;101294.44;;;28.24
64296;BMP280;51082;38.236;15.432;2022-07-29T05:30:28;101293.81;;;28.27
64296;BMP280;51082;38.236;15.432;2022-07-29T05:31:30;101295.91;;;28.30
64296;BMP280;51082;38.236;15.432;2022-07-29T05:32:32;101296.72;;;28.31
64296;BMP280;51082;38.236;15.432;2022-07-29T05:33:34;101295.91;;;28.30
64296;BMP280;51082;38.236;15.432;2022-07-29T05:34:37;101301.47;;;28.34
64296;BMP280;51082;38.236;15.432;2022-07-29T05:35:38;101299.09;;;28.32
64296;BMP280;51082;38.236;15.432;2022-07-29T05:36:41;101305.41;;;28.36
64296;BMP280;51082;38.236;15.432;2022-07-29T05:37:42;101303.69;;;28.40
64296;BMP280;51082;38.236;15.432;2022-07-29T05:38:45;101303.63;;;28.45
64296;BMP280;51082;38.236;15.432;2022-07-29T05:39:48;101304.56;;;28.50
64296;BMP280;51082;38.236;15.432;2022-07-29T05:40:51;101306.06;;;28.56
64296;BMP280;51082;38.236;15.432;2022-07-29T05:41:52;101307.03;;;28.60
64296;BMP280;51082;38.236;15.432;2022-07-29T05:42:55;101309.91;;;28.63
64296;BMP280;51082;38.236;15.432;2022-07-29T05:43:57;101299.66;;;28.65
64296;BMP280;51082;38.236;15.432;2022-07-29T05:45:00;101301.25;;;28.66
64296;BMP280;51082;38.236;15.432;2022-07-29T05:46:02;101301.13;;;28.71
64296;BMP280;51082;38.236;15.432;2022-07-29T05:47:05;101307.78;;;28.74
64296;BMP280;51082;38.236;15.432;2022-07-29T05:48:07;101310.34;;;28.79
64296;BMP280;51082;38.236;15.432;2022-07-29T05:49:10;101309.84;;;28.77
64296;BMP280;51082;38.236;15.432;2022-07-29T05:50:11;101309.06;;;28.76
64296;BMP280;51082;38.236;15.432;2022-07-29T05:51:14;101317.94;;;28.85
64296;BMP280;51082;38.236;15.432;2022-07-29T05:52:16;101311.06;;;28.93
64296;BMP280;51082;38.236;15.432;2022-07-29T05:53:19;101316.47;;;29.02
64296;BMP280;51082;38.236;15.432;2022-07-29T05:54:20;101324.56;;;29.10
64296;BMP280;51082;38.236;15.432;2022-07-29T05:55:25;101321.16;;;29.18
64296;BMP280;51082;38.236;15.432;2022-07-29T05:56:27;101324.19;;;29.26
64296;BMP280;51082;38.236;15.432;2022-07-29T05:57:29;101323.56;;;29.29
64296;BMP280;51082;38.236;15.432;2022-07-29T05:58:32;101326.56;;;29.27
64296;BMP280;51082;38.236;15.432;2022-07-29T05:59:35;101330.84;;;29.28
64296;BMP280;51082;38.236;15.432;2022-07-29T06:00:38;101328.63;;;29.30
64296;BMP280;51082;38.236;15.432;2022-07-29T06:01:40;101328.69;;;29.39
64296;BMP280;51082;38.236;15.432;2022-07-29T06:02:43;101326.94;;;29.43